sensor_id;sensor_type;location;lat;lon;timestamp;pressure;altitude;pressure_sealevel;temperature;humidity
77067;BME280;65994;50.378;15.470;2023-10-19T00:00:41;97971.47;;;7.32;63.74
77067;BME280;65994;50.378;15.470;2023-10-19T00:03:30;97970.63;;;7.30;63.58
77067;BME280;65994;50.378;15.470;2023-10-19T00:05:56;97966.44;;;7.29;63.84
77067;BME280;65994;50.378;15.470;2023-10-19T00:08:23;97964.72;;;7.29;63.90
77067;BME280;65994;50.378;15.470;2023-10-19T00:10:52;97958.84;;;7.29;64.13
77067;BME280;65994;50.378;15.470;2023-10-19T00:13:28;97953.81;;;7.26;63.88
77067;BME280;65994;50.378;15.470;2023-10-19T00:15:55;97947.13;;;7.22;64.39
77067;BME280;65994;50.378;15.470;2023-10-19T00:18:24;97942.06;;;7.22;64.68
77067;BME280;65994;50.378;15.470;2023-10-19T00:20:52;97930.25;;;7.24;64.48
77067;BME280;65994;50.378;15.470;2023-10-19T00:23:23;97930.22;;;7.25;64.29
77067;BME280;65994;50.378;15.470;2023-10-19T00:25:56;97929.41;;;7.25;64.29
77067;BME280;65994;50.378;15.470;2023-10-19T00:28:22;97926.00;;;7.26;64.33
77067;BME280;65994;50.378;15.470;2023-10-19T00:30:51;97931.03;;;7.29;64.09
77067;BME280;65994;50.378;15.470;2023-10-19T00:33:19;97928.53;;;7.29;64.24
77067;BME280;65994;50.378;15.470;2023-10-19T00:35:49;97936.09;;;7.29;64.09
77067;BME280;65994;50.378;15.470;2023-10-19T00:38:35;97926.88;;;7.25;64.37
77067;BME280;65994;50.378;15.470;2023-10-19T00:41:02;97917.59;;;7.27;64.32
77067;BME280;65994;50.378;15.470;2023-10-19T00:43:38;97921.78;;;7.26;63.84
77067;BME280;65994;50.378;15.470;2023-10-19T00:46:16;97915.84;;;7.30;63.49
77067;BME280;65994;50.378;15.470;2023-10-19T00:48:56;97899.84;;;7.30;63.69
77067;BME280;65994;50.378;15.470;2023-10-19T00:51:27;97889.75;;;7.31;63.78
77067;BME280;65994;50.378;15.470;2023-10-19T00:56:37;97876.28;;;7.29;63.67
77067;BME280;65994;50.378;15.470;2023-10-19T00:59:03;97867.91;;;7.27;64.41
77067;BME280;65994;50.378;15.470;2023-10-19T01:01:52;97856.09;;;7.26;63.84
77067;BME280;65994;50.378;15.470;2023-10-19T01:04:30;97859.50;;;7.24;64.13
77067;BME280;65994;50.378;15.470;2023-10-19T01:07:00;97852.72;;;7.27;63.60
77067;BME280;65994;50.378;15.470;2023-10-19T01:09:31;97839.25;;;7.27;64.14
77067;BME280;65994;50.378;15.470;2023-10-19T01:12:05;97844.28;;;7.28;64.27
77067;BME280;65994;50.378;15.470;2023-10-19T01:17:35;97821.50;;;7.30;64.00
77067;BME280;65994;50.378;15.470;2023-10-19T01:25:43;97792.06;;;7.26;63.92
77067;BME280;65994;50.378;15.470;2023-10-19T01:28:17;97801.31;;;7.28;63.61
77067;BME280;65994;50.378;15.470;2023-10-19T01:30:44;97797.13;;;7.27;63.54
77067;BME280;65994;50.378;15.470;2023-10-19T01:33:11;97797.91;;;7.31;64.02
77067;BME280;65994;50.378;15.470;2023-10-19T01:35:42;97796.25;;;7.30;63.97
77067;BME280;65994;50.378;15.470;2023-10-19T01:38:27;97784.44;;;7.32;63.60
77067;BME280;65994;50.378;15.470;2023-10-19T01:41:01;97791.13;;;7.34;63.82
77067;BME280;65994;50.378;15.470;2023-10-19T01:43:32;97791.09;;;7.37;64.01
77067;BME280;65994;50.378;15.470;2023-10-19T01:45:59;97796.06;;;7.44;63.93
77067;BME280;65994;50.378;15.470;2023-10-19T01:48:31;97795.22;;;7.43;63.38
77067;BME280;65994;50.378;15.470;2023-10-19T01:51:03;97792.59;;;7.49;63.01
77067;BME280;65994;50.378;15.470;2023-10-19T01:53:33;97789.19;;;7.53;63.29
77067;BME280;65994;50.378;15.470;2023-10-19T01:56:06;97785.78;;;7.56;63.81
77067;BME280;65994;50.378;15.470;2023-10-19T01:58:36;97778.22;;;7.56;63.44
77067;BME280;65994;50.378;15.470;2023-10-19T02:01:03;97776.50;;;7.56;63.50
77067;BME280;65994;50.378;15.470;2023-10-19T02:03:49;97773.09;;;7.60;63.17
77067;BME280;65994;50.378;15.470;2023-10-19T02:06:21;97771.34;;;7.62;63.41
77067;BME280;65994;50.378;15.470;2023-10-19T02:08:51;97766.31;;;7.62;63.42
77067;BME280;65994;50.378;15.470;2023-10-19T02:11:21;97755.31;;;7.65;63.28
77067;BME280;65994;50.378;15.470;2023-10-19T02:13:49;97755.31;;;7.65;63.31
77067;BME280;65994;50.378;15.470;2023-10-19T02:16:19;97757.81;;;7.68;62.71
77067;BME280;65994;50.378;15.470;2023-10-19T02:18:51;97762.84;;;7.70;63.48
77067;BME280;65994;50.378;15.470;2023-10-19T02:21:18;97754.44;;;7.68;62.96
77067;BME280;65994;50.378;15.470;2023-10-19T02:23:57;97757.81;;;7.67;63.42
77067;BME280;65994;50.378;15.470;2023-10-19T02:26:25;97743.47;;;7.69;63.39
77067;BME280;65994;50.378;15.470;2023-10-19T02:28:53;97749.41;;;7.66;63.11
77067;BME280;65994;50.378;15.470;2023-10-19T02:31:20;97742.69;;;7.65;63.62
77067;BME280;65994;50.378;15.470;2023-10-19T02:33:50;97744.34;;;7.66;63.38
77067;BME280;65994;50.378;15.470;2023-10-19T02:36:28;97743.50;;;7.66;63.52
77067;BME280;65994;50.378;15.470;2023-10-19T02:38:59;97733.44;;;7.62;63.63
77067;BME280;65994;50.378;15.470;2023-10-19T02:41:27;97735.06;;;7.67;63.36
77067;BME280;65994;50.378;15.470;2023-10-19T02:43:55;97743.47;;;7.69;63.46
77067;BME280;65994;50.378;15.470;2023-10-19T02:46:33;97745.94;;;7.72;63.81
77067;BME280;65994;50.378;15.470;2023-10-19T02:49:04;97743.41;;;7.73;63.02
77067;BME280;65994;50.378;15.470;2023-10-19T02:51:30;97739.97;;;7.76;63.52
77067;BME280;65994;50.378;15.470;2023-10-19T02:53:57;97730.69;;;7.76;63.04
77067;BME280;65994;50.378;15.470;2023-10-19T02:56:28;97732.41;;;7.74;62.84
77067;BME280;65994;50.378;15.470;2023-10-19T02:58:56;97725.63;;;7.76;63.44
77067;BME280;65994;50.378;15.470;2023-10-19T03:01:30;97725.66;;;7.75;63.48
77067;BME280;65994;50.378;15.470;2023-10-19T03:04:01;97734.16;;;7.71;63.20
77067;BME280;65994;50.378;15.470;2023-10-19T03:06:29;97742.50;;;7.76;63.14
77067;BME280;65994;50.378;15.470;2023-10-19T03:08:59;97736.69;;;7.71;63.40
77067;BME280;65994;50.378;15.470;2023-10-19T03:11:45;97734.16;;;7.72;63.48
77067;BME280;65994;50.378;15.470;2023-10-19T03:14:11;97729.94;;;7.71;63.58
77067;BME280;65994;50.378;15.470;2023-10-19T03:16:38;97728.16;;;7.76;63.69
77067;BME280;65994;50.378;15.470;2023-10-19T03:19:08;97729.03;;;7.77;63.70
77067;BME280;65994;50.378;15.470;2023-10-19T03:21:35;97716.38;;;7.75;64.16
77067;BME280;65994;50.378;15.470;2023-10-19T03:24:11;97707.94;;;7.76;63.75
77067;BME280;65994;50.378;15.470;2023-10-19T03:26:39;97708.00;;;7.72;64.14
77067;BME280;65994;50.378;15.470;2023-10-19T03:29:16;97693.63;;;7.75;64.04
77067;BME280;65994;50.378;15.470;2023-10-19T03:31:47;97701.22;;;7.75;63.74
77067;BME280;65994;50.378;15.470;2023-10-19T03:34:14;97696.94;;;7.79;63.65
77067;BME280;65994;50.378;15.470;2023-10-19T03:36:42;97692.75;;;7.76;63.88
77067;BME280;65994;50.378;15.470;2023-10-19T03:39:10;97691.91;;;7.76;63.87
77067;BME280;65994;50.378;15.470;2023-10-19T03:41:40;97683.50;;;7.77;63.67
77067;BME280;65994;50.378;15.470;2023-10-19T03:44:11;97677.59;;;7.76;64.31
77067;BME280;65994;50.378;15.470;2023-10-19T03:46:53;97669.09;;;7.80;63.77
77067;BME280;65994;50.378;15.470;2023-10-19T03:49:20;97664.91;;;7.79;63.77
77067;BME280;65994;50.378;15.470;2023-10-19T03:51:47;97650.56;;;7.80;64.00
77067;BME280;65994;50.378;15.470;2023-10-19T03:54:37;97648.88;;;7.79;63.64
77067;BME280;65994;50.378;15.470;2023-10-19T03:57:09;97630.41;;;7.75;63.66
77067;BME280;65994;50.378;15.470;2023-10-19T03:59:38;97622.88;;;7.72;64.61
77067;BME280;65994;50.378;15.470;2023-10-19T04:02:05;97617.88;;;7.69;65.24
77067;BME280;65994;50.378;15.470;2023-10-19T04:04:36;97612.00;;;7.67;65.02
77067;BME280;65994;50.378;15.470;2023-10-19T04:07:05;97608.63;;;7.68;64.67
77067;BME280;65994;50.378;15.470;2023-10-19T04:09:50;97597.63;;;7.69;66.01
77067;BME280;65994;50.378;15.470;2023-10-19T04:12:26;97601.88;;;7.69;65.46
77067;BME280;65994;50.378;15.470;2023-10-19T04:14:58;97594.25;;;7.70;65.68
77067;BME280;65994;50.378;15.470;2023-10-19T04:17:35;97589.22;;;7.67;66.44
77067;BME280;65994;50.378;15.470;2023-10-19T04:20:02;97575.00;;;7.63;67.46
77067;BME280;65994;50.378;15.470;2023-10-19T04:22:46;97550.63;;;7.57;67.24
77067;BME280;65994;50.378;15.470;2023-10-19T04:25:14;97563.34;;;7.54;69.15
77067;BME280;65994;50.378;15.470;2023-10-19T04:27:45;97568.41;;;7.53;68.50
77067;BME280;65994;50.378;15.470;2023-10-19T04:30:13;97570.94;;;7.53;68.62
77067;BME280;65994;50.378;15.470;2023-10-19T04:32:45;97561.69;;;7.52;70.04
77067;BME280;65994;50.378;15.470;2023-10-19T04:35:12;97575.13;;;7.55;70.33
77067;BME280;65994;50.378;15.470;2023-10-19T04:37:50;97583.56;;;7.54;69.05
77067;BME280;65994;50.378;15.470;2023-10-19T04:40:22;97566.72;;;7.55;69.99
77067;BME280;65994;50.378;15.470;2023-10-19T04:42:52;97565.00;;;7.55;69.99
77067;BME280;65994;50.378;15.470;2023-10-19T04:45:19;97570.94;;;7.54;68.28
77067;BME280;65994;50.378;15.470;2023-10-19T04:47:49;97567.53;;;7.54;70.17
77067;BME280;65994;50.378;15.470;2023-10-19T04:50:18;97552.38;;;7.54;68.74
77067;BME280;65994;50.378;15.470;2023-10-19T04:52:44;97551.47;;;7.58;69.59
77067;BME280;65994;50.378;15.470;2023-10-19T04:55:11;97554.81;;;7.58;70.05
77067;BME280;65994;50.378;15.470;2023-10-19T04:57:37;97549.84;;;7.54;70.41
77067;BME280;65994;50.378;15.470;2023-10-19T05:00:03;97550.72;;;7.53;71.10
77067;BME280;65994;50.378;15.470;2023-10-19T05:02:30;97555.84;;;7.48;70.19
77067;BME280;65994;50.378;15.470;2023-10-19T05:04:56;97555.81;;;7.51;71.28
77067;BME280;65994;50.378;15.470;2023-10-19T05:07:22;97551.63;;;7.50;71.31
77067;BME280;65994;50.378;15.470;2023-10-19T05:09:48;97545.75;;;7.48;70.94
77067;BME280;65994;50.378;15.470;2023-10-19T05:12:15;97556.72;;;7.47;71.78
77067;BME280;65994;50.378;15.470;2023-10-19T05:14:42;97548.31;;;7.47;71.60
77067;BME280;65994;50.378;15.470;2023-10-19T05:17:09;97543.22;;;7.48;71.85
77067;BME280;65994;50.378;15.470;2023-10-19T05:19:36;97536.50;;;7.47;72.56
77067;BME280;65994;50.378;15.470;2023-10-19T05:22:09;97540.78;;;7.44;73.19
77067;BME280;65994;50.378;15.470;2023-10-19T05:24:36;97539.97;;;7.40;72.57
77067;BME280;65994;50.378;15.470;2023-10-19T05:27:02;97532.47;;;7.37;73.36
77067;BME280;65994;50.378;15.470;2023-10-19T05:29:31;97533.25;;;7.39;74.34
77067;BME280;65994;50.378;15.470;2023-10-19T05:31:59;97537.53;;;7.35;74.23
77067;BME280;65994;50.378;15.470;2023-10-19T05:34:26;97544.28;;;7.36;75.05
77067;BME280;65994;50.378;15.470;2023-10-19T05:36:52;97540.88;;;7.37;74.50
77067;BME280;65994;50.378;15.470;2023-10-19T05:39:20;97542.59;;;7.35;73.57
77067;BME280;65994;50.378;15.470;2023-10-19T05:41:46;97545.09;;;7.37;74.35
77067;BME280;65994;50.378;15.470;2023-10-19T05:44:13;97535.88;;;7.34;73.36
77067;BME280;65994;50.378;15.470;2023-10-19T05:46:39;97527.50;;;7.32;74.34
77067;BME280;65994;50.378;15.470;2023-10-19T05:49:07;97524.97;;;7.31;74.29
77067;BME280;65994;50.378;15.470;2023-10-19T05:51:33;97526.66;;;7.32;73.99
77067;BME280;65994;50.378;15.470;2023-10-19T05:54:00;97521.63;;;7.32;74.21
77067;BME280;65994;50.378;15.470;2023-10-19T05:56:29;97525.84;;;7.31;73.76
77067;BME280;65994;50.378;15.470;2023-10-19T05:59:00;97530.03;;;7.31;74.16
77067;BME280;65994;50.378;15.470;2023-10-19T06:01:27;97524.13;;;7.32;75.09
77067;BME280;65994;50.378;15.470;2023-10-19T06:03:53;97529.94;;;7.35;75.51
77067;BME280;65994;50.378;15.470;2023-10-19T06:06:20;97519.88;;;7.34;74.57
77067;BME280;65994;50.378;15.470;2023-10-19T06:08:46;97522.44;;;7.31;74.54
77067;BME280;65994;50.378;15.470;2023-10-19T06:11:13;97517.47;;;7.28;75.06
77067;BME280;65994;50.378;15.470;2023-10-19T06:13:39;97515.72;;;7.30;76.05
77067;BME280;65994;50.378;15.470;2023-10-19T06:16:05;97504.78;;;7.29;75.02
77067;BME280;65994;50.378;15.470;2023-10-19T06:18:32;97508.09;;;7.33;74.96
77067;BME280;65994;50.378;15.470;2023-10-19T06:20:58;97520.75;;;7.33;76.08
77067;BME280;65994;50.378;15.470;2023-10-19T06:23:24;97528.28;;;7.36;75.73
77067;BME280;65994;50.378;15.470;2023-10-19T06:25:50;97536.63;;;7.41;74.86
77067;BME280;65994;50.378;15.470;2023-10-19T06:28:17;97532.38;;;7.42;74.37
77067;BME280;65994;50.378;15.470;2023-10-19T06:30:43;97539.00;;;7.49;75.52
77067;BME280;65994;50.378;15.470;2023-10-19T06:33:11;97530.50;;;7.54;75.15
77067;BME280;65994;50.378;15.470;2023-10-19T06:35:37;97535.53;;;7.54;75.58
77067;BME280;65994;50.378;15.470;2023-10-19T06:38:03;97532.09;;;7.57;74.44
77067;BME280;65994;50.378;15.470;2023-10-19T06:40:30;97517.72;;;7.60;75.15
77067;BME280;65994;50.378;15.470;2023-10-19T06:42:59;97508.47;;;7.59;74.54
77067;BME280;65994;50.378;15.470;2023-10-19T06:45:28;97514.38;;;7.60;75.19
77067;BME280;65994;50.378;15.470;2023-10-19T06:47:58;97514.38;;;7.60;74.91
77067;BME280;65994;50.378;15.470;2023-10-19T06:50:26;97505.09;;;7.60;75.41
77067;BME280;65994;50.378;15.470;2023-10-19T06:52:52;97500.91;;;7.59;75.75
77067;BME280;65994;50.378;15.470;2023-10-19T06:55:20;97492.47;;;7.59;75.41
77067;BME280;65994;50.378;15.470;2023-10-19T06:57:51;97498.31;;;7.61;74.62
77067;BME280;65994;50.378;15.470;2023-10-19T07:00:20;97487.34;;;7.62;75.82
77067;BME280;65994;50.378;15.470;2023-10-19T07:02:49;97487.38;;;7.60;75.43
77067;BME280;65994;50.378;15.470;2023-10-19T07:05:19;97489.09;;;7.58;76.08
77067;BME280;65994;50.378;15.470;2023-10-19T07:07:56;97488.22;;;7.61;75.49
77067;BME280;65994;50.378;15.470;2023-10-19T07:10:25;97486.56;;;7.58;76.08
77067;BME280;65994;50.378;15.470;2023-10-19T07:12:54;97491.63;;;7.58;76.55
77067;BME280;65994;50.378;15.470;2023-10-19T07:15:21;97480.75;;;7.53;77.33
77067;BME280;65994;50.378;15.470;2023-10-19T07:17:49;97480.75;;;7.55;77.08
77067;BME280;65994;50.378;15.470;2023-10-19T07:20:18;97474.88;;;7.53;77.00
77067;BME280;65994;50.378;15.470;2023-10-19T07:23:05;97474.84;;;7.56;77.75
77067;BME280;65994;50.378;15.470;2023-10-19T07:25:52;97475.63;;;7.59;77.39
77067;BME280;65994;50.378;15.470;2023-10-19T07:28:22;97473.03;;;7.61;77.30
77067;BME280;65994;50.378;15.470;2023-10-19T07:30:55;97473.88;;;7.61;77.54
77067;BME280;65994;50.378;15.470;2023-10-19T07:33:22;97468.81;;;7.61;77.03
77067;BME280;65994;50.378;15.470;2023-10-19T07:35:49;97468.78;;;7.65;77.52
77067;BME280;65994;50.378;15.470;2023-10-19T07:38:22;97469.63;;;7.63;77.79
77067;BME280;65994;50.378;15.470;2023-10-19T07:40:48;97474.59;;;7.68;78.08
77067;BME280;65994;50.378;15.470;2023-10-19T07:43:15;97483.03;;;7.67;77.54
77067;BME280;65994;50.378;15.470;2023-10-19T07:45:41;97473.69;;;7.71;78.15
77067;BME280;65994;50.378;15.470;2023-10-19T07:48:08;97471.91;;;7.76;78.60
77067;BME280;65994;50.378;15.470;2023-10-19T07:50:38;97487.91;;;7.76;79.11
77067;BME280;65994;50.378;15.470;2023-10-19T07:53:06;97476.03;;;7.80;79.12
77067;BME280;65994;50.378;15.470;2023-10-19T07:55:32;97460.88;;;7.80;78.53
77067;BME280;65994;50.378;15.470;2023-10-19T07:57:59;97446.47;;;7.83;78.56
77067;BME280;65994;50.378;15.470;2023-10-19T08:00:32;97448.97;;;7.85;78.57
77067;BME280;65994;50.378;15.470;2023-10-19T08:03:02;97459.75;;;7.93;80.64
77067;BME280;65994;50.378;15.470;2023-10-19T08:05:30;97461.41;;;7.96;78.84
77067;BME280;65994;50.378;15.470;2023-10-19T08:07:57;97463.03;;;7.98;78.30
77067;BME280;65994;50.378;15.470;2023-10-19T08:10:25;97469.81;;;7.96;79.05
77067;BME280;65994;50.378;15.470;2023-10-19T08:12:52;97467.28;;;7.96;78.91
77067;BME280;65994;50.378;15.470;2023-10-19T08:15:19;97465.59;;;7.97;79.48
77067;BME280;65994;50.378;15.470;2023-10-19T08:17:48;97471.38;;;8.02;79.31
77067;BME280;65994;50.378;15.470;2023-10-19T08:20:19;97477.28;;;8.02;79.15
77067;BME280;65994;50.378;15.470;2023-10-19T08:22:59;97440.97;;;8.03;79.40
77067;BME280;65994;50.378;15.470;2023-10-19T08:25:27;97440.97;;;8.05;79.40
77067;BME280;65994;50.378;15.470;2023-10-19T08:27:54;97462.00;;;8.08;79.34
77067;BME280;65994;50.378;15.470;2023-10-19T08:30:23;97462.81;;;8.09;80.33
77067;BME280;65994;50.378;15.470;2023-10-19T08:32:51;97460.19;;;8.12;80.66
77067;BME280;65994;50.378;15.470;2023-10-19T08:35:21;97454.41;;;8.08;79.37
77067;BME280;65994;50.378;15.470;2023-10-19T08:37:51;97443.41;;;8.08;79.96
77067;BME280;65994;50.378;15.470;2023-10-19T08:40:19;97441.66;;;8.11;79.92
77067;BME280;65994;50.378;15.470;2023-10-19T08:42:46;97428.13;;;8.12;79.98
77067;BME280;65994;50.378;15.470;2023-10-19T08:45:13;97444.81;;;8.21;80.90
77067;BME280;65994;50.378;15.470;2023-10-19T08:48:00;97480.19;;;8.24;80.54
77067;BME280;65994;50.378;15.470;2023-10-19T08:50:31;97457.47;;;8.21;79.81
77067;BME280;65994;50.378;15.470;2023-10-19T08:53:01;97430.50;;;8.20;79.78
77067;BME280;65994;50.378;15.470;2023-10-19T08:55:31;97430.47;;;8.22;80.17
77067;BME280;65994;50.378;15.470;2023-10-19T08:57:57;97417.91;;;8.19;80.16
77067;BME280;65994;50.378;15.470;2023-10-19T09:00:27;97435.63;;;8.17;80.55
77067;BME280;65994;50.378;15.470;2023-10-19T09:02:54;97434.78;;;8.18;80.52
77067;BME280;65994;50.378;15.470;2023-10-19T09:05:20;97422.88;;;8.22;80.34
77067;BME280;65994;50.378;15.470;2023-10-19T09:07:52;97411.13;;;8.19;80.44
77067;BME280;65994;50.378;15.470;2023-10-19T09:10:26;97419.50;;;8.21;80.86
77067;BME280;65994;50.378;15.470;2023-10-19T09:13:02;97421.19;;;8.22;80.88
77067;BME280;65994;50.378;15.470;2023-10-19T09:15:29;97419.56;;;8.20;81.31
77067;BME280;65994;50.378;15.470;2023-10-19T09:18:19;97424.47;;;8.27;81.72
77067;BME280;65994;50.378;15.470;2023-10-19T09:20:47;97423.53;;;8.31;81.84
77067;BME280;65994;50.378;15.470;2023-10-19T09:23:24;97425.09;;;8.35;80.65
77067;BME280;65994;50.378;15.470;2023-10-19T09:25:51;97425.09;;;8.37;80.70
77067;BME280;65994;50.378;15.470;2023-10-19T09:28:21;97420.81;;;8.39;80.68
77067;BME280;65994;50.378;15.470;2023-10-19T09:30:51;97416.63;;;8.38;80.27
77067;BME280;65994;50.378;15.470;2023-10-19T09:33:18;97430.25;;;8.31;80.90
77067;BME280;65994;50.378;15.470;2023-10-19T09:35:48;97421.72;;;8.35;82.34
77067;BME280;65994;50.378;15.470;2023-10-19T09:38:17;97417.47;;;8.38;81.07
77067;BME280;65994;50.378;15.470;2023-10-19T09:40:52;97417.97;;;8.53;81.43
77067;BME280;65994;50.378;15.470;2023-10-19T09:43:41;97415.00;;;8.71;82.96
77067;BME280;65994;50.378;15.470;2023-10-19T09:46:09;97423.09;;;8.85;81.39
77067;BME280;65994;50.378;15.470;2023-10-19T09:48:46;97418.59;;;8.97;81.26
77067;BME280;65994;50.378;15.470;2023-10-19T09:51:15;97415.13;;;8.99;80.58
77067;BME280;65994;50.378;15.470;2023-10-19T09:53:45;97406.50;;;9.06;79.68
77067;BME280;65994;50.378;15.470;2023-10-19T09:56:19;97402.47;;;8.99;79.19
77067;BME280;65994;50.378;15.470;2023-10-19T09:58:57;97410.88;;;9.01;79.45
77067;BME280;65994;50.378;15.470;2023-10-19T10:01:27;97402.44;;;9.01;79.05
77067;BME280;65994;50.378;15.470;2023-10-19T10:03:53;97394.03;;;8.99;79.45
77067;BME280;65994;50.378;15.470;2023-10-19T10:09:20;97395.31;;;9.15;79.03
77067;BME280;65994;50.378;15.470;2023-10-19T10:11:51;97398.44;;;9.25;79.63
77067;BME280;65994;50.378;15.470;2023-10-19T10:14:26;97405.97;;;9.26;79.72
77067;BME280;65994;50.378;15.470;2023-10-19T10:17:04;97395.69;;;9.32;79.78
77067;BME280;65994;50.378;15.470;2023-10-19T10:19:35;97394.03;;;9.31;80.24
77067;BME280;65994;50.378;15.470;2023-10-19T10:22:11;97387.13;;;9.36;81.45
77067;BME280;65994;50.378;15.470;2023-10-19T10:24:54;97375.31;;;9.35;79.06
77067;BME280;65994;50.378;15.470;2023-10-19T10:27:23;97373.72;;;9.33;79.92
77067;BME280;65994;50.378;15.470;2023-10-19T10:30:00;97378.81;;;9.31;80.76
77067;BME280;65994;50.378;15.470;2023-10-19T10:38:08;97363.25;;;9.14;79.84
77067;BME280;65994;50.378;15.470;2023-10-19T10:43:11;97362.34;;;9.15;79.94
77067;BME280;65994;50.378;15.470;2023-10-19T10:45:37;97352.97;;;9.19;80.43
77067;BME280;65994;50.378;15.470;2023-10-19T10:48:06;97343.53;;;9.24;79.99
77067;BME280;65994;50.378;15.470;2023-10-19T10:50:37;97338.97;;;9.35;80.04
77067;BME280;65994;50.378;15.470;2023-10-19T10:53:04;97326.78;;;9.48;81.56
77067;BME280;65994;50.378;15.470;2023-10-19T10:55:31;97322.41;;;9.53;81.65
77067;BME280;65994;50.378;15.470;2023-10-19T10:57:58;97324.03;;;9.55;80.79
77067;BME280;65994;50.378;15.470;2023-10-19T11:00:25;97316.38;;;9.57;81.16
77067;BME280;65994;50.378;15.470;2023-10-19T11:03:00;97310.28;;;9.64;80.62
77067;BME280;65994;50.378;15.470;2023-10-19T11:05:26;97302.78;;;9.59;79.54
77067;BME280;65994;50.378;15.470;2023-10-19T11:10:33;97306.25;;;9.57;79.28
77067;BME280;65994;50.378;15.470;2023-10-19T11:13:04;97305.47;;;9.55;79.13
77067;BME280;65994;50.378;15.470;2023-10-19T11:15:30;97303.56;;;9.61;79.88
77067;BME280;65994;50.378;15.470;2023-10-19T11:17:57;97298.91;;;9.76;78.35
77067;BME280;65994;50.378;15.470;2023-10-19T11:20:25;97294.50;;;9.81;78.87
77067;BME280;65994;50.378;15.470;2023-10-19T11:22:54;97291.75;;;9.88;78.72
77067;BME280;65994;50.378;15.470;2023-10-19T11:25:24;97290.50;;;10.02;78.59
77067;BME280;65994;50.378;15.470;2023-10-19T11:27:57;97290.13;;;10.12;79.50
77067;BME280;65994;50.378;15.470;2023-10-19T11:30:28;97294.22;;;10.18;77.46
77067;BME280;65994;50.378;15.470;2023-10-19T11:32:55;97292.13;;;10.31;79.33
77067;BME280;65994;50.378;15.470;2023-10-19T11:35:28;97285.44;;;10.28;77.56
77067;BME280;65994;50.378;15.470;2023-10-19T11:37:57;97292.09;;;10.32;77.52
77067;BME280;65994;50.378;15.470;2023-10-19T11:40:24;97292.66;;;10.40;76.46
77067;BME280;65994;50.378;15.470;2023-10-19T11:42:56;97290.81;;;10.46;76.47
77067;BME280;65994;50.378;15.470;2023-10-19T11:45:23;97289.09;;;10.46;76.28
77067;BME280;65994;50.378;15.470;2023-10-19T11:47:53;97275.56;;;10.46;77.39
77067;BME280;65994;50.378;15.470;2023-10-19T11:50:20;97291.47;;;10.51;76.05
77067;BME280;65994;50.378;15.470;2023-10-19T11:52:46;97275.66;;;10.68;75.08
77067;BME280;65994;50.378;15.470;2023-10-19T11:55:13;97267.41;;;10.61;75.42
77067;BME280;65994;50.378;15.470;2023-10-19T11:57:40;97273.75;;;10.49;75.15
77067;BME280;65994;50.378;15.470;2023-10-19T12:00:11;97264.41;;;10.50;76.78
77067;BME280;65994;50.378;15.470;2023-10-19T12:02:46;97251.88;;;10.45;77.15
77067;BME280;65994;50.378;15.470;2023-10-19T12:05:12;97243.47;;;10.43;76.67
77067;BME280;65994;50.378;15.470;2023-10-19T12:07:39;97231.66;;;10.42;77.50
77067;BME280;65994;50.378;15.470;2023-10-19T12:10:10;97246.00;;;10.43;76.12
77067;BME280;65994;50.378;15.470;2023-10-19T12:12:37;97228.91;;;10.48;76.47
77067;BME280;65994;50.378;15.470;2023-10-19T12:15:04;97227.09;;;10.52;76.59
77067;BME280;65994;50.378;15.470;2023-10-19T12:17:32;97226.75;;;10.61;76.90
77067;BME280;65994;50.378;15.470;2023-10-19T12:19:58;97222.41;;;10.64;77.23
77067;BME280;65994;50.378;15.470;2023-10-19T12:22:25;97229.03;;;10.69;75.58
77067;BME280;65994;50.378;15.470;2023-10-19T12:24:57;97223.66;;;10.76;77.08
77067;BME280;65994;50.378;15.470;2023-10-19T12:27:24;97221.03;;;10.79;75.85
77067;BME280;65994;50.378;15.470;2023-10-19T12:29:51;97219.72;;;10.92;76.17
77067;BME280;65994;50.378;15.470;2023-10-19T12:32:18;97210.59;;;10.87;74.97
77067;BME280;65994;50.378;15.470;2023-10-19T12:34:45;97224.88;;;10.89;76.39
77067;BME280;65994;50.378;15.470;2023-10-19T12:37:11;97220.88;;;10.84;75.57
77067;BME280;65994;50.378;15.470;2023-10-19T12:39:39;97218.38;;;10.82;74.66
77067;BME280;65994;50.378;15.470;2023-10-19T12:42:13;97213.31;;;10.82;76.05
77067;BME280;65994;50.378;15.470;2023-10-19T12:44:40;97218.66;;;10.75;76.03
77067;BME280;65994;50.378;15.470;2023-10-19T12:47:10;97220.31;;;10.76;75.32
77067;BME280;65994;50.378;15.470;2023-10-19T12:49:40;97230.31;;;10.80;75.62
77067;BME280;65994;50.378;15.470;2023-10-19T12:52:08;97225.22;;;10.80;76.57
77067;BME280;65994;50.378;15.470;2023-10-19T12:54:34;97230.38;;;10.79;75.93
77067;BME280;65994;50.378;15.470;2023-10-19T12:57:02;97237.34;;;10.74;76.23
77067;BME280;65994;50.378;15.470;2023-10-19T12:59:36;97235.78;;;10.70;76.38
77067;BME280;65994;50.378;15.470;2023-10-19T13:02:05;97234.78;;;10.74;76.33
77067;BME280;65994;50.378;15.470;2023-10-19T13:04:34;97228.00;;;10.74;77.26
77067;BME280;65994;50.378;15.470;2023-10-19T13:07:00;97232.09;;;10.78;76.80
77067;BME280;65994;50.378;15.470;2023-10-19T13:09:28;97232.09;;;10.78;76.09
77067;BME280;65994;50.378;15.470;2023-10-19T13:11:57;97232.69;;;10.85;75.84
77067;BME280;65994;50.378;15.470;2023-10-19T13:14:24;97231.84;;;10.84;76.64
77067;BME280;65994;50.378;15.470;2023-10-19T13:16:50;97222.50;;;10.85;75.67
77067;BME280;65994;50.378;15.470;2023-10-19T13:19:18;97209.97;;;10.80;76.01
77067;BME280;65994;50.378;15.470;2023-10-19T13:21:47;97205.69;;;10.82;76.30
77067;BME280;65994;50.378;15.470;2023-10-19T13:24:15;97203.81;;;10.87;75.99
77067;BME280;65994;50.378;15.470;2023-10-19T13:26:42;97195.22;;;10.90;75.65
77067;BME280;65994;50.378;15.470;2023-10-19T13:29:13;97193.63;;;10.87;75.83
77067;BME280;65994;50.378;15.470;2023-10-19T13:31:41;97195.38;;;10.85;75.70
77067;BME280;65994;50.378;15.470;2023-10-19T13:34:15;97197.44;;;10.76;75.86
77067;BME280;65994;50.378;15.470;2023-10-19T13:36:42;97197.41;;;10.77;77.24